sensor_id;sensor_type;location;lat;lon;timestamp;P1;durP1;ratioP1;P2;durP2;ratioP2
8252;SDS011;61313;48.396;10.008;2022-11-20T00:00:45;8.03;;;5.03;;
8252;SDS011;61313;48.396;10.008;2022-11-20T00:03:10;8.07;;;4.23;;
8252;SDS011;61313;48.396;10.008;2022-11-20T00:05:36;10.03;;;4.50;;
8252;SDS011;61313;48.396;10.008;2022-11-20T00:08:02;4.80;;;4.30;;
8252;SDS011;61313;48.396;10.008;2022-11-20T00:10:27;7.07;;;4.43;;
8252;SDS011;61313;48.396;10.008;2022-11-20T00:12:53;7.90;;;5.03;;
8252;SDS011;61313;48.396;10.008;2022-11-20T00:15:19;5.20;;;4.80;;
8252;SDS011;61313;48.396;10.008;2022-11-20T00:17:44;9.23;;;4.93;;
8252;SDS011;61313;48.396;10.008;2022-11-20T00:20:10;8.27;;;5.07;;
8252;SDS011;61313;48.396;10.008;2022-11-20T00:22:36;4.50;;;4.10;;
8252;SDS011;61313;48.396;10.008;2022-11-20T00:25:02;5.73;;;4.97;;
8252;SDS011;61313;48.396;10.008;2022-11-20T00:27:28;6.63;;;4.90;;
8252;SDS011;61313;48.396;10.008;2022-11-20T00:29:53;7.87;;;4.80;;
8252;SDS011;61313;48.396;10.008;2022-11-20T00:32:19;4.83;;;4.30;;
8252;SDS011;61313;48.396;10.008;2022-11-20T00:34:45;7.03;;;5.50;;
8252;SDS011;61313;48.396;10.008;2022-11-20T00:37:10;5.30;;;4.33;;
8252;SDS011;61313;48.396;10.008;2022-11-20T00:39:36;4.97;;;4.47;;
8252;SDS011;61313;48.396;10.008;2022-11-20T00:42:02;4.77;;;4.20;;
8252;SDS011;61313;48.396;10.008;2022-11-20T00:44:27;9.90;;;4.73;;
8252;SDS011;61313;48.396;10.008;2022-11-20T00:46:53;6.33;;;4.47;;
8252;SDS011;61313;48.396;10.008;2022-11-20T00:49:19;33.50;;;6.53;;
8252;SDS011;61313;48.396;10.008;2022-11-20T00:51:44;6.60;;;4.60;;
8252;SDS011;61313;48.396;10.008;2022-11-20T00:54:10;7.80;;;4.00;;
8252;SDS011;61313;48.396;10.008;2022-11-20T00:56:35;11.20;;;4.67;;
8252;SDS011;61313;48.396;10.008;2022-11-20T00:59:01;10.90;;;5.03;;
8252;SDS011;61313;48.396;10.008;2022-11-20T01:01:27;5.00;;;4.50;;
8252;SDS011;61313;48.396;10.008;2022-11-20T01:03:55;5.40;;;4.50;;
8252;SDS011;61313;48.396;10.008;2022-11-20T01:06:26;4.97;;;4.43;;
8252;SDS011;61313;48.396;10.008;2022-11-20T01:08:58;7.93;;;4.73;;
8252;SDS011;61313;48.396;10.008;2022-11-20T01:11:26;4.63;;;4.23;;
8252;SDS011;61313;48.396;10.008;2022-11-20T01:13:54;4.90;;;4.40;;
8252;SDS011;61313;48.396;10.008;2022-11-20T01:18:51;5.60;;;4.40;;
8252;SDS011;61313;48.396;10.008;2022-11-20T01:21:22;5.10;;;4.53;;
8252;SDS011;61313;48.396;10.008;2022-11-20T01:23:52;6.13;;;4.40;;
8252;SDS011;61313;48.396;10.008;2022-11-20T01:26:22;4.87;;;4.13;;
8252;SDS011;61313;48.396;10.008;2022-11-20T01:28:50;5.00;;;4.23;;
8252;SDS011;61313;48.396;10.008;2022-11-20T01:31:49;6.30;;;4.40;;
8252;SDS011;61313;48.396;10.008;2022-11-20T01:34:15;5.77;;;4.60;;
8252;SDS011;61313;48.396;10.008;2022-11-20T01:36:43;6.33;;;4.53;;
8252;SDS011;61313;48.396;10.008;2022-11-20T01:39:13;5.60;;;4.60;;
8252;SDS011;61313;48.396;10.008;2022-11-20T01:41:44;6.63;;;4.07;;
8252;SDS011;61313;48.396;10.008;2022-11-20T01:47:13;5.93;;;5.00;;
8252;SDS011;61313;48.396;10.008;2022-11-20T01:49:46;4.70;;;4.13;;
8252;SDS011;61313;48.396;10.008;2022-11-20T01:52:36;4.57;;;4.07;;
8252;SDS011;61313;48.396;10.008;2022-11-20T01:57:31;5.20;;;4.30;;
8252;SDS011;61313;48.396;10.008;2022-11-20T02:00:05;5.23;;;4.33;;
8252;SDS011;61313;48.396;10.008;2022-11-20T02:02:32;7.70;;;4.70;;
8252;SDS011;61313;48.396;10.008;2022-11-20T02:05:02;10.33;;;4.07;;
8252;SDS011;61313;48.396;10.008;2022-11-20T02:07:37;5.20;;;4.37;;
8252;SDS011;61313;48.396;10.008;2022-11-20T02:10:03;5.53;;;4.40;;
8252;SDS011;61313;48.396;10.008;2022-11-20T02:12:29;9.73;;;4.77;;
8252;SDS011;61313;48.396;10.008;2022-11-20T02:15:13;6.03;;;4.50;;
8252;SDS011;61313;48.396;10.008;2022-11-20T02:17:39;4.73;;;4.20;;
8252;SDS011;61313;48.396;10.008;2022-11-20T02:20:05;6.53;;;3.93;;
8252;SDS011;61313;48.396;10.008;2022-11-20T02:22:34;4.80;;;4.40;;
8252;SDS011;61313;48.396;10.008;2022-11-20T02:25:07;6.20;;;4.60;;
8252;SDS011;61313;48.396;10.008;2022-11-20T02:27:34;5.40;;;4.90;;
8252;SDS011;61313;48.396;10.008;2022-11-20T02:30:01;4.30;;;3.87;;
8252;SDS011;61313;48.396;10.008;2022-11-20T02:32:33;6.30;;;4.23;;
8252;SDS011;61313;48.396;10.008;2022-11-20T02:35:09;6.77;;;4.07;;
8252;SDS011;61313;48.396;10.008;2022-11-20T02:37:46;5.17;;;4.30;;
8252;SDS011;61313;48.396;10.008;2022-11-20T02:40:14;7.67;;;3.83;;
8252;SDS011;61313;48.396;10.008;2022-11-20T02:42:40;5.20;;;4.67;;
8252;SDS011;61313;48.396;10.008;2022-11-20T02:45:06;4.80;;;3.77;;
8252;SDS011;61313;48.396;10.008;2022-11-20T02:47:32;5.67;;;3.67;;
8252;SDS011;61313;48.396;10.008;2022-11-20T02:49:58;5.27;;;4.00;;
8252;SDS011;61313;48.396;10.008;2022-11-20T02:52:24;5.43;;;4.03;;
8252;SDS011;61313;48.396;10.008;2022-11-20T02:54:50;5.87;;;5.07;;
8252;SDS011;61313;48.396;10.008;2022-11-20T02:57:16;5.90;;;4.20;;
8252;SDS011;61313;48.396;10.008;2022-11-20T02:59:42;7.63;;;4.47;;
8252;SDS011;61313;48.396;10.008;2022-11-20T03:02:08;6.93;;;4.60;;
8252;SDS011;61313;48.396;10.008;2022-11-20T03:04:34;4.67;;;3.70;;
8252;SDS011;61313;48.396;10.008;2022-11-20T03:06:59;4.70;;;4.20;;
8252;SDS011;61313;48.396;10.008;2022-11-20T03:09:25;7.93;;;4.20;;
8252;SDS011;61313;48.396;10.008;2022-11-20T03:11:51;4.20;;;3.80;;
8252;SDS011;61313;48.396;10.008;2022-11-20T03:14:16;4.93;;;4.20;;
8252;SDS011;61313;48.396;10.008;2022-11-20T03:16:42;5.20;;;4.10;;
8252;SDS011;61313;48.396;10.008;2022-11-20T03:19:08;4.37;;;3.83;;
8252;SDS011;61313;48.396;10.008;2022-11-20T03:21:34;4.97;;;3.97;;
8252;SDS011;61313;48.396;10.008;2022-11-20T03:24:00;4.77;;;4.27;;
8252;SDS011;61313;48.396;10.008;2022-11-20T03:26:27;5.63;;;4.93;;
8252;SDS011;61313;48.396;10.008;2022-11-20T03:28:54;4.73;;;4.23;;
8252;SDS011;61313;48.396;10.008;2022-11-20T03:31:32;8.20;;;4.83;;
8252;SDS011;61313;48.396;10.008;2022-11-20T03:34:00;5.23;;;4.67;;
8252;SDS011;61313;48.396;10.008;2022-11-20T03:36:27;4.90;;;4.30;;
8252;SDS011;61313;48.396;10.008;2022-11-20T03:38:54;5.00;;;4.50;;
8252;SDS011;61313;48.396;10.008;2022-11-20T03:41:22;7.40;;;4.60;;
8252;SDS011;61313;48.396;10.008;2022-11-20T03:43:59;4.70;;;4.30;;
8252;SDS011;61313;48.396;10.008;2022-11-20T03:46:27;6.50;;;4.73;;
8252;SDS011;61313;48.396;10.008;2022-11-20T03:48:54;5.03;;;4.30;;
8252;SDS011;61313;48.396;10.008;2022-11-20T03:51:23;6.67;;;4.43;;
8252;SDS011;61313;48.396;10.008;2022-11-20T03:53:52;4.77;;;3.73;;
8252;SDS011;61313;48.396;10.008;2022-11-20T03:56:20;10.20;;;4.10;;
8252;SDS011;61313;48.396;10.008;2022-11-20T03:58:48;4.97;;;4.23;;
8252;SDS011;61313;48.396;10.008;2022-11-20T04:01:16;9.63;;;4.40;;
8252;SDS011;61313;48.396;10.008;2022-11-20T04:03:46;6.57;;;3.40;;
8252;SDS011;61313;48.396;10.008;2022-11-20T04:06:14;4.00;;;3.60;;
8252;SDS011;61313;48.396;10.008;2022-11-20T04:08:42;5.27;;;3.70;;
8252;SDS011;61313;48.396;10.008;2022-11-20T04:11:17;6.70;;;4.50;;
8252;SDS011;61313;48.396;10.008;2022-11-20T04:13:48;4.83;;;4.40;;
8252;SDS011;61313;48.396;10.008;2022-11-20T04:16:19;6.73;;;4.20;;
8252;SDS011;61313;48.396;10.008;2022-11-20T04:18:45;4.83;;;3.63;;
8252;SDS011;61313;48.396;10.008;2022-11-20T04:21:11;5.00;;;3.97;;
8252;SDS011;61313;48.396;10.008;2022-11-20T04:23:37;6.63;;;4.20;;
8252;SDS011;61313;48.396;10.008;2022-11-20T04:26:10;7.50;;;4.60;;
8252;SDS011;61313;48.396;10.008;2022-11-20T04:28:36;10.50;;;4.77;;
8252;SDS011;61313;48.396;10.008;2022-11-20T04:31:07;6.50;;;5.43;;
8252;SDS011;61313;48.396;10.008;2022-11-20T04:33:33;13.70;;;5.17;;
8252;SDS011;61313;48.396;10.008;2022-11-20T04:36:00;12.20;;;5.17;;
8252;SDS011;61313;48.396;10.008;2022-11-20T04:38:35;8.70;;;4.00;;
8252;SDS011;61313;48.396;10.008;2022-11-20T04:41:02;6.47;;;4.47;;
8252;SDS011;61313;48.396;10.008;2022-11-20T04:43:29;4.40;;;4.00;;
8252;SDS011;61313;48.396;10.008;2022-11-20T04:45:56;4.80;;;4.20;;
8252;SDS011;61313;48.396;10.008;2022-11-20T04:48:23;4.23;;;3.83;;
8252;SDS011;61313;48.396;10.008;2022-11-20T04:50:49;7.33;;;4.90;;
8252;SDS011;61313;48.396;10.008;2022-11-20T04:53:16;8.20;;;3.90;;
8252;SDS011;61313;48.396;10.008;2022-11-20T04:55:41;6.80;;;4.10;;
8252;SDS011;61313;48.396;10.008;2022-11-20T04:58:07;4.87;;;3.97;;
8252;SDS011;61313;48.396;10.008;2022-11-20T05:00:33;5.57;;;4.43;;
8252;SDS011;61313;48.396;10.008;2022-11-20T05:02:59;8.23;;;4.13;;
8252;SDS011;61313;48.396;10.008;2022-11-20T05:05:24;6.37;;;4.10;;
8252;SDS011;61313;48.396;10.008;2022-11-20T05:07:50;8.00;;;4.90;;
8252;SDS011;61313;48.396;10.008;2022-11-20T05:10:16;6.23;;;4.50;;
8252;SDS011;61313;48.396;10.008;2022-11-20T05:12:41;4.40;;;3.90;;
8252;SDS011;61313;48.396;10.008;2022-11-20T05:15:07;5.10;;;4.37;;
8252;SDS011;61313;48.396;10.008;2022-11-20T05:17:33;3.90;;;3.50;;
8252;SDS011;61313;48.396;10.008;2022-11-20T05:19:59;6.07;;;4.80;;
8252;SDS011;61313;48.396;10.008;2022-11-20T05:22:25;4.60;;;4.20;;
8252;SDS011;61313;48.396;10.008;2022-11-20T05:24:50;4.60;;;4.20;;
8252;SDS011;61313;48.396;10.008;2022-11-20T05:27:16;4.27;;;3.87;;
8252;SDS011;61313;48.396;10.008;2022-11-20T05:29:42;9.13;;;3.97;;
8252;SDS011;61313;48.396;10.008;2022-11-20T05:32:07;5.00;;;4.20;;
8252;SDS011;61313;48.396;10.008;2022-11-20T05:34:34;4.30;;;3.90;;
8252;SDS011;61313;48.396;10.008;2022-11-20T05:37:00;4.50;;;3.90;;
8252;SDS011;61313;48.396;10.008;2022-11-20T05:39:26;13.53;;;4.83;;
8252;SDS011;61313;48.396;10.008;2022-11-20T05:41:52;5.33;;;4.83;;
8252;SDS011;61313;48.396;10.008;2022-11-20T05:44:38;7.13;;;4.63;;
8252;SDS011;61313;48.396;10.008;2022-11-20T05:47:05;7.20;;;5.23;;
8252;SDS011;61313;48.396;10.008;2022-11-20T05:49:31;6.37;;;5.40;;
8252;SDS011;61313;48.396;10.008;2022-11-20T05:51:57;7.33;;;5.57;;
8252;SDS011;61313;48.396;10.008;2022-11-20T05:54:23;8.70;;;6.17;;
8252;SDS011;61313;48.396;10.008;2022-11-20T05:56:48;7.60;;;5.90;;
8252;SDS011;61313;48.396;10.008;2022-11-20T05:59:14;8.67;;;5.17;;
8252;SDS011;61313;48.396;10.008;2022-11-20T06:01:40;7.33;;;6.00;;
8252;SDS011;61313;48.396;10.008;2022-11-20T06:04:05;6.20;;;5.50;;
8252;SDS011;61313;48.396;10.008;2022-11-20T06:06:31;6.07;;;5.47;;
8252;SDS011;61313;48.396;10.008;2022-11-20T06:08:57;7.90;;;6.43;;
8252;SDS011;61313;48.396;10.008;2022-11-20T06:11:23;7.97;;;5.73;;
8252;SDS011;61313;48.396;10.008;2022-11-20T06:13:50;12.00;;;6.57;;
8252;SDS011;61313;48.396;10.008;2022-11-20T06:16:18;10.93;;;6.60;;
8252;SDS011;61313;48.396;10.008;2022-11-20T06:18:45;7.00;;;6.30;;
8252;SDS011;61313;48.396;10.008;2022-11-20T06:21:18;16.83;;;6.67;;
8252;SDS011;61313;48.396;10.008;2022-11-20T06:23:45;16.73;;;6.67;;
8252;SDS011;61313;48.396;10.008;2022-11-20T06:26:15;7.73;;;5.77;;
8252;SDS011;61313;48.396;10.008;2022-11-20T06:28:46;8.80;;;5.77;;
8252;SDS011;61313;48.396;10.008;2022-11-20T06:31:13;6.63;;;6.03;;
8252;SDS011;61313;48.396;10.008;2022-11-20T06:33:40;7.80;;;5.73;;
8252;SDS011;61313;48.396;10.008;2022-11-20T06:36:06;8.63;;;5.80;;
8252;SDS011;61313;48.396;10.008;2022-11-20T06:38:32;7.20;;;5.40;;
8252;SDS011;61313;48.396;10.008;2022-11-20T06:40:58;12.47;;;6.63;;
8252;SDS011;61313;48.396;10.008;2022-11-20T06:43:24;7.60;;;6.10;;
8252;SDS011;61313;48.396;10.008;2022-11-20T06:45:53;7.87;;;5.80;;
8252;SDS011;61313;48.396;10.008;2022-11-20T06:48:20;8.83;;;6.40;;
8252;SDS011;61313;48.396;10.008;2022-11-20T06:50:47;9.57;;;6.60;;
8252;SDS011;61313;48.396;10.008;2022-11-20T06:53:12;8.83;;;5.60;;
8252;SDS011;61313;48.396;10.008;2022-11-20T06:55:41;7.40;;;5.40;;
8252;SDS011;61313;48.396;10.008;2022-11-20T06:58:08;8.93;;;6.27;;
8252;SDS011;61313;48.396;10.008;2022-11-20T07:00:34;8.43;;;5.57;;
8252;SDS011;61313;48.396;10.008;2022-11-20T07:03:04;11.00;;;6.60;;
8252;SDS011;61313;48.396;10.008;2022-11-20T07:05:30;15.10;;;6.47;;
8252;SDS011;61313;48.396;10.008;2022-11-20T07:07:56;14.43;;;6.53;;
8252;SDS011;61313;48.396;10.008;2022-11-20T07:10:22;12.00;;;6.80;;
8252;SDS011;61313;48.396;10.008;2022-11-20T07:12:51;17.63;;;7.17;;
8252;SDS011;61313;48.396;10.008;2022-11-20T07:15:21;8.10;;;6.40;;
8252;SDS011;61313;48.396;10.008;2022-11-20T07:17:48;6.23;;;4.67;;
8252;SDS011;61313;48.396;10.008;2022-11-20T07:20:14;9.50;;;6.27;;
8252;SDS011;61313;48.396;10.008;2022-11-20T07:22:40;16.10;;;6.80;;
8252;SDS011;61313;48.396;10.008;2022-11-20T07:25:07;10.20;;;6.00;;
8252;SDS011;61313;48.396;10.008;2022-11-20T07:27:33;10.50;;;5.97;;
8252;SDS011;61313;48.396;10.008;2022-11-20T07:29:59;9.60;;;5.60;;
8252;SDS011;61313;48.396;10.008;2022-11-20T07:32:25;11.40;;;6.77;;
8252;SDS011;61313;48.396;10.008;2022-11-20T07:34:51;7.43;;;5.20;;
8252;SDS011;61313;48.396;10.008;2022-11-20T07:37:17;14.53;;;6.00;;
8252;SDS011;61313;48.396;10.008;2022-11-20T07:39:42;11.53;;;5.20;;
8252;SDS011;61313;48.396;10.008;2022-11-20T07:42:08;15.63;;;5.93;;
8252;SDS011;61313;48.396;10.008;2022-11-20T07:44:35;12.67;;;5.80;;
8252;SDS011;61313;48.396;10.008;2022-11-20T07:47:01;9.77;;;5.77;;
8252;SDS011;61313;48.396;10.008;2022-11-20T07:49:27;12.33;;;5.70;;
8252;SDS011;61313;48.396;10.008;2022-11-20T07:51:53;8.20;;;5.50;;
8252;SDS011;61313;48.396;10.008;2022-11-20T07:54:19;6.27;;;4.87;;
8252;SDS011;61313;48.396;10.008;2022-11-20T07:56:45;6.67;;;5.83;;
8252;SDS011;61313;48.396;10.008;2022-11-20T07:59:11;7.30;;;5.80;;
8252;SDS011;61313;48.396;10.008;2022-11-20T08:01:40;5.97;;;5.33;;
8252;SDS011;61313;48.396;10.008;2022-11-20T08:04:07;9.13;;;5.37;;
8252;SDS011;61313;48.396;10.008;2022-11-20T08:06:33;19.53;;;6.00;;
8252;SDS011;61313;48.396;10.008;2022-11-20T08:08:58;9.70;;;5.10;;
8252;SDS011;61313;48.396;10.008;2022-11-20T08:11:24;7.90;;;6.07;;
8252;SDS011;61313;48.396;10.008;2022-11-20T08:14:08;6.90;;;5.13;;
8252;SDS011;61313;48.396;10.008;2022-11-20T08:16:37;6.10;;;5.23;;
8252;SDS011;61313;48.396;10.008;2022-11-20T08:19:07;12.70;;;5.37;;
8252;SDS011;61313;48.396;10.008;2022-11-20T08:21:34;8.53;;;5.40;;
8252;SDS011;61313;48.396;10.008;2022-11-20T08:24:00;6.10;;;5.47;;
8252;SDS011;61313;48.396;10.008;2022-11-20T08:26:25;6.47;;;5.20;;
8252;SDS011;61313;48.396;10.008;2022-11-20T08:28:55;8.00;;;6.23;;
8252;SDS011;61313;48.396;10.008;2022-11-20T08:31:22;6.23;;;5.47;;
8252;SDS011;61313;48.396;10.008;2022-11-20T08:33:48;20.77;;;6.70;;
8252;SDS011;61313;48.396;10.008;2022-11-20T08:36:14;5.47;;;4.73;;
8252;SDS011;61313;48.396;10.008;2022-11-20T08:38:40;5.57;;;4.77;;
8252;SDS011;61313;48.396;10.008;2022-11-20T08:41:06;9.43;;;5.20;;
8252;SDS011;61313;48.396;10.008;2022-11-20T08:43:51;14.80;;;6.17;;
8252;SDS011;61313;48.396;10.008;2022-11-20T08:46:30;13.80;;;5.73;;
8252;SDS011;61313;48.396;10.008;2022-11-20T08:49:05;8.87;;;5.30;;
8252;SDS011;61313;48.396;10.008;2022-11-20T08:51:31;8.00;;;4.97;;
8252;SDS011;61313;48.396;10.008;2022-11-20T08:53:57;12.83;;;5.40;;
8252;SDS011;61313;48.396;10.008;2022-11-20T08:56:23;6.47;;;4.90;;
8252;SDS011;61313;48.396;10.008;2022-11-20T08:58:49;5.97;;;3.80;;
8252;SDS011;61313;48.396;10.008;2022-11-20T09:01:19;7.33;;;4.73;;
8252;SDS011;61313;48.396;10.008;2022-11-20T09:03:46;8.00;;;5.17;;
8252;SDS011;61313;48.396;10.008;2022-11-20T09:06:12;5.70;;;4.80;;
8252;SDS011;61313;48.396;10.008;2022-11-20T09:08:38;5.80;;;4.73;;
8252;SDS011;61313;48.396;10.008;2022-11-20T09:11:04;6.10;;;4.50;;
8252;SDS011;61313;48.396;10.008;2022-11-20T09:13:31;5.70;;;4.47;;
8252;SDS011;61313;48.396;10.008;2022-11-20T09:15:59;6.20;;;4.87;;
8252;SDS011;61313;48.396;10.008;2022-11-20T09:18:26;6.90;;;4.90;;
8252;SDS011;61313;48.396;10.008;2022-11-20T09:20:57;6.57;;;4.47;;
8252;SDS011;61313;48.396;10.008;2022-11-20T09:23:26;4.57;;;3.43;;
8252;SDS011;61313;48.396;10.008;2022-11-20T09:25:52;10.23;;;4.10;;
8252;SDS011;61313;48.396;10.008;2022-11-20T09:28:20;3.77;;;3.27;;
8252;SDS011;61313;48.396;10.008;2022-11-20T09:30:46;7.37;;;4.17;;
8252;SDS011;61313;48.396;10.008;2022-11-20T09:33:12;9.13;;;3.60;;
8252;SDS011;61313;48.396;10.008;2022-11-20T09:35:37;10.80;;;3.60;;
8252;SDS011;61313;48.396;10.008;2022-11-20T09:38:04;7.17;;;4.10;;
8252;SDS011;61313;48.396;10.008;2022-11-20T09:40:30;4.07;;;3.67;;
8252;SDS011;61313;48.396;10.008;2022-11-20T09:54:18;14.90;;;5.10;;
8252;SDS011;61313;48.396;10.008;2022-11-20T09:56:50;12.47;;;3.67;;
8252;SDS011;61313;48.396;10.008;2022-11-20T10:07:47;10.10;;;3.80;;
8252;SDS011;61313;48.396;10.008;2022-11-20T10:10:33;4.40;;;3.37;;
8252;SDS011;61313;48.396;10.008;2022-11-20T10:18:42;5.77;;;3.77;;
8252;SDS011;61313;48.396;10.008;2022-11-20T10:21:27;3.37;;;3.07;;
8252;SDS011;61313;48.396;10.008;2022-11-20T10:24:26;6.47;;;3.23;;
8252;SDS011;61313;48.396;10.008;2022-11-20T10:27:35;8.40;;;3.10;;
8252;SDS011;61313;48.396;10.008;2022-11-20T10:30:19;5.07;;;2.90;;
8252;SDS011;61313;48.396;10.008;2022-11-20T10:32:58;5.70;;;3.57;;
8252;SDS011;61313;48.396;10.008;2022-11-20T10:38:09;4.03;;;3.00;;
8252;SDS011;61313;48.396;10.008;2022-11-20T10:40:43;5.73;;;2.60;;
8252;SDS011;61313;48.396;10.008;2022-11-20T10:48:27;6.33;;;3.00;;
8252;SDS011;61313;48.396;10.008;2022-11-20T10:53:54;2.97;;;2.67;;
8252;SDS011;61313;48.396;10.008;2022-11-20T10:56:40;5.37;;;3.10;;
8252;SDS011;61313;48.396;10.008;2022-11-20T10:59:18;4.80;;;3.33;;
8252;SDS011;61313;48.396;10.008;2022-11-20T11:02:19;5.30;;;3.00;;
8252;SDS011;61313;48.396;10.008;2022-11-20T11:04:47;2.93;;;2.50;;
8252;SDS011;61313;48.396;10.008;2022-11-20T11:07:22;9.17;;;4.50;;
8252;SDS011;61313;48.396;10.008;2022-11-20T11:12:44;10.83;;;4.00;;
8252;SDS011;61313;48.396;10.008;2022-11-20T11:15:58;6.30;;;3.33;;
8252;SDS011;61313;48.396;10.008;2022-11-20T11:18:03;3.30;;;2.50;;
8252;SDS011;61313;48.396;10.008;2022-11-20T11:20:29;4.03;;;2.83;;
8252;SDS011;61313;48.396;10.008;2022-11-20T11:22:58;5.60;;;2.40;;
8252;SDS011;61313;48.396;10.008;2022-11-20T11:25:31;6.20;;;3.20;;
8252;SDS011;61313;48.396;10.008;2022-11-20T11:28:18;13.93;;;4.00;;
8252;SDS011;61313;48.396;10.008;2022-11-20T11:30:47;5.60;;;3.97;;
8252;SDS011;61313;48.396;10.008;2022-11-20T11:33:21;6.83;;;2.57;;
8252;SDS011;61313;48.396;10.008;2022-11-20T11:35:49;14.93;;;3.57;;
8252;SDS011;61313;48.396;10.008;2022-11-20T11:38:34;14.83;;;3.20;;
8252;SDS011;61313;48.396;10.008;2022-11-20T11:41:00;27.27;;;6.10;;
8252;SDS011;61313;48.396;10.008;2022-11-20T11:43:31;33.20;;;5.80;;
8252;SDS011;61313;48.396;10.008;2022-11-20T11:49:25;9.87;;;2.80;;
8252;SDS011;61313;48.396;10.008;2022-11-20T11:54:55;7.90;;;2.77;;
8252;SDS011;61313;48.396;10.008;2022-11-20T12:00:12;4.93;;;2.90;;
8252;SDS011;61313;48.396;10.008;2022-11-20T12:08:21;5.30;;;3.23;;
8252;SDS011;61313;48.396;10.008;2022-11-20T12:11:11;22.87;;;5.07;;
8252;SDS011;61313;48.396;10.008;2022-11-20T12:16:36;2.90;;;2.20;;
8252;SDS011;61313;48.396;10.008;2022-11-20T12:19:07;3.73;;;2.43;;
8252;SDS011;61313;48.396;10.008;2022-11-20T12:30:19;4.33;;;2.40;;
8252;SDS011;61313;48.396;10.008;2022-11-20T12:47:17;4.53;;;2.90;;
8252;SDS011;61313;48.396;10.008;2022-11-20T12:49:56;7.60;;;2.93;;
8252;SDS011;61313;48.396;10.008;2022-11-20T13:00:20;5.77;;;2.30;;
8252;SDS011;61313;48.396;10.008;2022-11-20T13:03:04;3.27;;;2.53;;
8252;SDS011;61313;48.396;10.008;2022-11-20T13:08:27;10.57;;;2.77;;
8252;SDS011;61313;48.396;10.008;2022-11-20T13:11:03;7.00;;;2.43;;
8252;SDS011;61313;48.396;10.008;2022-11-20T13:13:43;6.13;;;2.83;;
8252;SDS011;61313;48.396;10.008;2022-11-20T13:16:37;18.50;;;3.40;;
8252;SDS011;61313;48.396;10.008;2022-11-20T13:19:13;8.17;;;2.20;;
8252;SDS011;61313;48.396;10.008;2022-11-20T13:21:42;11.70;;;3.33;;
8252;SDS011;61313;48.396;10.008;2022-11-20T13:29:39;4.70;;;1.87;;
8252;SDS011;61313;48.396;10.008;2022-11-20T13:32:16;10.03;;;2.60;;
8252;SDS011;61313;48.396;10.008;2022-11-20T13:34:56;5.50;;;2.13;;
8252;SDS011;61313;48.396;10.008;2022-11-20T13:37:28;2.10;;;1.60;;
8252;SDS011;61313;48.396;10.008;2022-11-20T13:40:32;3.27;;;1.30;;
8252;SDS011;61313;48.396;10.008;2022-11-20T13:42:54;2.33;;;1.77;;
8252;SDS011;61313;48.396;10.008;2022-11-20T13:45:22;5.40;;;1.87;;
8252;SDS011;61313;48.396;10.008;2022-11-20T13:47:50;2.27;;;1.43;;
8252;SDS011;61313;48.396;10.008;2022-11-20T13:50:16;3.93;;;1.70;;
8252;SDS011;61313;48.396;10.008;2022-11-20T13:58:24;3.67;;;2.67;;
8252;SDS011;61313;48.396;10.008;2022-11-20T14:00:58;3.30;;;1.63;;
8252;SDS011;61313;48.396;10.008;2022-11-20T14:03:44;9.93;;;2.33;;
8252;SDS011;61313;48.396;10.008;2022-11-20T14:06:22;6.33;;;2.13;;
8252;SDS011;61313;48.396;10.008;2022-11-20T14:08:58;16.47;;;2.90;;
8252;SDS011;61313;48.396;10.008;2022-11-20T14:11:26;6.47;;;1.60;;
8252;SDS011;61313;48.396;10.008;2022-11-20T14:14:00;1.50;;;1.10;;
8252;SDS011;61313;48.396;10.008;2022-11-20T14:16:38;4.10;;;1.83;;
8252;SDS011;61313;48.396;10.008;2022-11-20T14:21:48;4.23;;;2.20;;
8252;SDS011;61313;48.396;10.008;2022-11-20T14:24:23;9.23;;;3.00;;
8252;SDS011;61313;48.396;10.008;2022-11-20T14:26:49;8.43;;;2.80;;
8252;SDS011;61313;48.396;10.008;2022-11-20T14:29:17;13.47;;;3.60;;
8252;SDS011;61313;48.396;10.008;2022-11-20T14:31:51;8.37;;;2.57;;
8252;SDS011;61313;48.396;10.008;2022-11-20T14:34:19;19.50;;;3.30;;
8252;SDS011;61313;48.396;10.008;2022-11-20T14:36:48;5.67;;;1.80;;
8252;SDS011;61313;48.396;10.008;2022-11-20T14:39:22;6.13;;;1.80;;
8252;SDS011;61313;48.396;10.008;2022-11-20T14:41:55;8.43;;;1.90;;
8252;SDS011;61313;48.396;10.008;2022-11-20T14:44:26;5.40;;;1.97;;
8252;SDS011;61313;48.396;10.008;2022-11-20T14:46:54;3.70;;;1.60;;
8252;SDS011;61313;48.396;10.008;2022-11-20T14:49:20;2.80;;;1.57;;
8252;SDS011;61313;48.396;10.008;2022-11-20T14:51:46;3.53;;;1.67;;
8252;SDS011;61313;48.396;10.008;2022-11-20T14:54:27;5.30;;;2.07;;
8252;SDS011;61313;48.396;10.008;2022-11-20T14:56:54;9.37;;;2.53;;
8252;SDS011;61313;48.396;10.008;2022-11-20T14:59:32;3.13;;;2.80;;
8252;SDS011;61313;48.396;10.008;2022-11-20T15:02:03;1.70;;;1.40;;
8252;SDS011;61313;48.396;10.008;2022-11-20T15:04:31;1.50;;;1.23;;
8252;SDS011;61313;48.396;10.008;2022-11-20T15:06:57;2.43;;;1.20;;
8252;SDS011;61313;48.396;10.008;2022-11-20T15:09:24;3.87;;;1.30;;
8252;SDS011;61313;48.396;10.008;2022-11-20T15:12:15;3.27;;;1.90;;
8252;SDS011;61313;48.396;10.008;2022-11-20T15:14:42;3.73;;;1.73;;
8252;SDS011;61313;48.396;10.008;2022-11-20T15:17:09;1.53;;;1.43;;
8252;SDS011;61313;48.396;10.008;2022-11-20T15:19:36;2.13;;;1.63;;
8252;SDS011;61313;48.396;10.008;2022-11-20T15:22:02;14.13;;;3.53;;
8252;SDS011;61313;48.396;10.008;2022-11-20T15:24:35;6.37;;;2.77;;
8252;SDS011;61313;48.396;10.008;2022-11-20T15:27:00;12.03;;;3.23;;
8252;SDS011;61313;48.396;10.008;2022-11-20T15:29:26;3.20;;;1.90;;
8252;SDS011;61313;48.396;10.008;2022-11-20T15:31:52;4.60;;;1.97;;
8252;SDS011;61313;48.396;10.008;2022-11-20T15:34:19;7.20;;;1.97;;
8252;SDS011;61313;48.396;10.008;2022-11-20T15:36:44;8.80;;;2.03;;
8252;SDS011;61313;48.396;10.008;2022-11-20T15:39:10;5.43;;;1.97;;
8252;SDS011;61313;48.396;10.008;2022-11-20T15:41:36;3.17;;;1.53;;
8252;SDS011;61313;48.396;10.008;2022-11-20T15:44:03;7.17;;;2.17;;
8252;SDS011;61313;48.396;10.008;2022-11-20T15:46:33;4.40;;;1.70;;
8252;SDS011;61313;48.396;10.008;2022-11-20T15:49:03;7.80;;;2.27;;
8252;SDS011;61313;48.396;10.008;2022-11-20T15:51:30;4.27;;;1.97;;
8252;SDS011;61313;48.396;10.008;2022-11-20T15:54:00;6.20;;;1.73;;
8252;SDS011;61313;48.396;10.008;2022-11-20T15:56:28;3.40;;;2.00;;
8252;SDS011;61313;48.396;10.008;2022-11-20T15:58:54;2.40;;;1.60;;
8252;SDS011;61313;48.396;10.008;2022-11-20T16:01:22;2.67;;;1.70;;
8252;SDS011;61313;48.396;10.008;2022-11-20T16:03:48;5.13;;;1.80;;
8252;SDS011;61313;48.396;10.008;2022-11-20T16:06:14;4.00;;;2.07;;
8252;SDS011;61313;48.396;10.008;2022-11-20T16:08:41;2.43;;;1.80;;
8252;SDS011;61313;48.396;10.008;2022-11-20T16:11:06;4.97;;;2.70;;
8252;SDS011;61313;48.396;10.008;2022-11-20T16:13:35;4.53;;;1.70;;
8252;SDS011;61313;48.396;10.008;2022-11-20T16:16:25;2.33;;;2.00;;
8252;SDS011;61313;48.396;10.008;2022-11-20T16:18:53;2.83;;;1.87;;
8252;SDS011;61313;48.396;10.008;2022-11-20T16:21:19;2.80;;;2.00;;
8252;SDS011;61313;48.396;10.008;2022-11-20T16:23:45;3.73;;;2.40;;
8252;SDS011;61313;48.396;10.008;2022-11-20T16:26:12;2.80;;;1.93;;
8252;SDS011;61313;48.396;10.008;2022-11-20T16:28:40;2.23;;;2.03;;
8252;SDS011;61313;48.396;10.008;2022-11-20T16:31:13;2.13;;;1.63;;
8252;SDS011;61313;48.396;10.008;2022-11-20T16:33:40;3.60;;;1.90;;
8252;SDS011;61313;48.396;10.008;2022-11-20T16:36:11;3.30;;;2.13;;
8252;SDS011;61313;48.396;10.008;2022-11-20T16:38:38;2.20;;;2.00;;
8252;SDS011;61313;48.396;10.008;2022-11-20T16:41:05;4.87;;;2.20;;
8252;SDS011;61313;48.396;10.008;2022-11-20T16:43:31;3.60;;;1.47;;
8252;SDS011;61313;48.396;10.008;2022-11-20T16:45:57;3.27;;;2.00;;
8252;SDS011;61313;48.396;10.008;2022-11-20T16:48:22;2.67;;;1.50;;
8252;SDS011;61313;48.396;10.008;2022-11-20T16:50:49;2.00;;;1.63;;